Time;durP1;ratioP1;P1;durP2;ratioP2;P2;SDS_P1;SDS_P2;PMS_P1;PMS_P2;Temp;Humidity;BMP_temperature;BMP_pressure;BME280_temperature;BME280_humidity;BME280_pressure;Samples;Min_cycle;Max_cycle;Signal;HPM_P1;HPM_P2
2021/12/10 00:01:28;;;;;;;21.80;12.37;;;;;;;;;;5030615;28;20025;-69
2021/12/10 00:03:56;;;;;;;21.40;13.13;;;;;;;;;;5029101;28;20700;-68
2021/12/10 00:06:27;;;;;;;23.75;12.55;;;;;;;;;;5030789;28;20026;-69
2021/12/10 00:08:56;;;;;;;22.77;13.57;;;;;;;;;;5029216;28;20041;-69
2021/12/10 00:11:25;;;;;;;22.88;13.30;;;;;;;;;;5029257;28;20033;-69
2021/12/10 00:13:52;;;;;;;23.65;13.63;;;;;;;;;;5029877;28;20039;-68
2021/12/10 00:16:19;;;;;;;21.88;13.05;;;;;;;;;;5029014;28;20092;-69
2021/12/10 00:18:52;;;;;;;23.33;12.63;;;;;;;;;;5030635;28;20026;-68
2021/12/10 00:21:18;;;;;;;24.05;12.73;;;;;;;;;;5030496;28;20400;-70
2021/12/10 00:23:49;;;;;;;22.70;13.73;;;;;;;;;;5029875;28;20100;-69
2021/12/10 00:26:15;;;;;;;24.40;12.93;;;;;;;;;;5030142;28;20025;-66
2021/12/10 00:28:41;;;;;;;21.42;14.00;;;;;;;;;;5030300;28;20053;-66
2021/12/10 00:31:29;;;;;;;22.48;13.45;;;;;;;;;;5028914;28;20179;-66
2021/12/10 00:34:04;;;;;;;24.17;13.82;;;;;;;;;;5029600;28;20484;-66
2021/12/10 00:36:33;;;;;;;23.15;13.43;;;;;;;;;;5021035;28;20030;-66
2021/12/10 00:39:01;;;;;;;24.30;13.77;;;;;;;;;;5010150;28;20033;-66
2021/12/10 00:41:28;;;;;;;23.73;14.57;;;;;;;;;;5025389;28;20057;-66
2021/12/10 00:43:54;;;;;;;23.08;14.25;;;;;;;;;;5009950;28;20025;-66
2021/12/10 00:46:20;;;;;;;23.42;14.02;;;;;;;;;;5019871;28;20029;-66
2021/12/10 00:51:30;;;;;;;22.52;14.32;;;;;;;;;;5051610;28;20102;-63
2021/12/10 00:53:57;;;;;;;22.00;14.43;;;;;;;;;;5054246;28;20101;-64
2021/12/10 00:56:23;;;;;;;23.52;13.20;;;;;;;;;;5054531;28;20083;-65
2021/12/10 00:58:49;;;;;;;22.00;12.88;;;;;;;;;;5054748;28;20021;-65
2021/12/10 01:01:17;;;;;;;21.13;13.45;;;;;;;;;;5056145;28;20024;-64
2021/12/10 01:03:49;;;;;;;20.15;11.82;;;;;;;;;;5073251;28;20052;-64
2021/12/10 01:06:16;;;;;;;23.30;12.55;;;;;;;;;;5054717;28;20075;-64
2021/12/10 01:08:44;;;;;;;21.40;11.50;;;;;;;;;;5056469;28;20111;-64
2021/12/10 01:11:13;;;;;;;20.30;11.83;;;;;;;;;;5056402;28;20548;-65
2021/12/10 01:13:41;;;;;;;19.80;11.82;;;;;;;;;;5055847;28;20031;-64
2021/12/10 01:23:42;;;;;;;20.35;11.68;;;;;;;;;;5056337;28;20028;-64
2021/12/10 01:25:26;;;;;;;21.40;12.38;;;;;;;;;;5074156;28;20059;-64
2021/12/10 01:27:31;;;;;;;23.65;13.02;;;;;;;;;;5063217;28;20058;-63
2021/12/10 01:29:59;;;;;;;20.13;11.52;;;;;;;;;;5074184;28;20020;-64
2021/12/10 01:32:27;;;;;;;22.07;12.73;;;;;;;;;;5055246;28;20031;-64
2021/12/10 01:34:53;;;;;;;21.77;12.65;;;;;;;;;;5056012;28;20338;-64
2021/12/10 01:37:19;;;;;;;20.25;12.30;;;;;;;;;;5073857;28;20052;-63
2021/12/10 01:39:46;;;;;;;20.70;11.70;;;;;;;;;;5073808;28;20108;-65
2021/12/10 01:42:32;;;;;;;20.13;11.95;;;;;;;;;;5073246;28;20047;-63
2021/12/10 01:44:59;;;;;;;21.92;12.18;;;;;;;;;;5073844;28;20028;-64
2021/12/10 01:47:27;;;;;;;19.58;12.10;;;;;;;;;;5055917;28;20035;-65
2021/12/10 01:49:54;;;;;;;24.45;14.13;;;;;;;;;;5055518;28;20473;-64
2021/12/10 01:52:21;;;;;;;21.00;12.75;;;;;;;;;;5073095;28;20031;-65
2021/12/10 01:54:52;;;;;;;22.63;12.60;;;;;;;;;;5055803;28;20070;-64
2021/12/10 01:57:19;;;;;;;22.13;12.50;;;;;;;;;;5055841;28;20074;-66
2021/12/10 01:59:45;;;;;;;23.35;13.45;;;;;;;;;;5073355;28;20054;-66
2021/12/10 02:02:14;;;;;;;23.13;13.15;;;;;;;;;;5072704;28;20108;-64
2021/12/10 02:04:41;;;;;;;22.08;12.77;;;;;;;;;;5073414;28;20089;-64
2021/12/10 02:07:08;;;;;;;24.17;12.50;;;;;;;;;;5073283;28;20033;-66
2021/12/10 02:09:34;;;;;;;21.80;13.30;;;;;;;;;;5072931;28;20021;-63
2021/12/10 02:12:00;;;;;;;22.30;12.32;;;;;;;;;;5054819;28;20499;-63
2021/12/10 02:14:26;;;;;;;23.08;13.32;;;;;;;;;;5055078;28;20035;-64
2021/12/10 02:16:56;;;;;;;23.50;12.75;;;;;;;;;;5054780;28;20025;-63
2021/12/10 02:19:22;;;;;;;22.83;13.10;;;;;;;;;;5054940;28;20012;-63
2021/12/10 02:21:49;;;;;;;26.83;14.43;;;;;;;;;;5072237;28;20435;-63
2021/12/10 02:24:15;;;;;;;23.98;13.93;;;;;;;;;;5072847;28;20035;-63
2021/12/10 02:26:44;;;;;;;21.77;12.38;;;;;;;;;;5054870;28;20101;-63
2021/12/10 02:29:12;;;;;;;23.33;12.38;;;;;;;;;;5072914;28;20066;-63
2021/12/10 02:31:39;;;;;;;23.05;13.30;;;;;;;;;;5054010;28;20123;-63
2021/12/10 02:34:05;;;;;;;21.50;13.05;;;;;;;;;;5072657;28;20017;-63
2021/12/10 02:36:32;;;;;;;21.85;12.85;;;;;;;;;;5054640;28;20451;-63
2021/12/10 02:38:58;;;;;;;24.77;12.73;;;;;;;;;;5054673;28;20059;-63
2021/12/10 02:41:29;;;;;;;21.00;12.48;;;;;;;;;;5054665;28;20021;-63
2021/12/10 02:43:57;;;;;;;23.75;13.93;;;;;;;;;;5072263;28;20493;-63
2021/12/10 02:46:23;;;;;;;21.67;13.30;;;;;;;;;;5054721;28;20036;-63
2021/12/10 02:48:49;;;;;;;21.85;13.30;;;;;;;;;;5054533;28;20051;-63
2021/12/10 02:51:15;;;;;;;19.95;12.45;;;;;;;;;;5072254;28;20032;-63
2021/12/10 02:53:42;;;;;;;20.25;12.75;;;;;;;;;;5071693;28;20112;-63
2021/12/10 02:56:08;;;;;;;23.40;12.82;;;;;;;;;;5072323;28;20032;-63
2021/12/10 02:58:34;;;;;;;22.33;13.75;;;;;;;;;;5072357;28;20111;-64
2021/12/10 03:01:12;;;;;;;20.42;12.30;;;;;;;;;;5072322;28;20035;-64
2021/12/10 03:03:38;;;;;;;23.30;13.77;;;;;;;;;;5053689;28;20115;-64
2021/12/10 03:06:10;;;;;;;21.77;13.55;;;;;;;;;;5054227;28;20580;-64
2021/12/10 03:08:36;;;;;;;24.42;13.60;;;;;;;;;;5072204;28;20099;-64
2021/12/10 03:11:02;;;;;;;21.38;12.70;;;;;;;;;;5054582;28;20383;-64
2021/12/10 03:13:28;;;;;;;20.95;12.48;;;;;;;;;;5053562;28;20038;-64
2021/12/10 03:15:54;;;;;;;22.00;12.23;;;;;;;;;;5072409;28;20411;-64
2021/12/10 03:18:21;;;;;;;21.33;13.52;;;;;;;;;;5054623;28;20031;-64
2021/12/10 03:20:47;;;;;;;20.83;12.10;;;;;;;;;;5072719;28;20028;-64
2021/12/10 03:23:13;;;;;;;20.63;12.65;;;;;;;;;;5072017;28;20052;-64
2021/12/10 03:25:40;;;;;;;21.38;12.45;;;;;;;;;;5072110;28;20107;-64
2021/12/10 03:28:06;;;;;;;21.48;12.65;;;;;;;;;;5071745;28;20031;-64
2021/12/10 03:30:34;;;;;;;19.17;11.38;;;;;;;;;;5054025;28;20017;-64
2021/12/10 03:33:00;;;;;;;20.42;11.80;;;;;;;;;;5071110;28;20044;-62
2021/12/10 03:35:28;;;;;;;19.27;12.15;;;;;;;;;;5053735;28;20035;-64
2021/12/10 03:37:55;;;;;;;25.33;13.18;;;;;;;;;;5053937;28;20025;-64
2021/12/10 03:40:21;;;;;;;21.17;12.30;;;;;;;;;;5071788;28;20025;-64
2021/12/10 03:42:49;;;;;;;20.70;11.98;;;;;;;;;;5053044;28;20032;-64
2021/12/10 03:45:16;;;;;;;19.15;10.85;;;;;;;;;;5053973;28;20032;-64
2021/12/10 03:47:43;;;;;;;20.85;12.30;;;;;;;;;;5071722;28;20071;-64
2021/12/10 03:50:10;;;;;;;21.55;11.55;;;;;;;;;;5071491;28;20032;-62
2021/12/10 03:52:37;;;;;;;22.50;12.85;;;;;;;;;;5070979;28;20027;-64
2021/12/10 03:55:04;;;;;;;20.90;12.50;;;;;;;;;;5071732;28;20048;-64
2021/12/10 03:57:30;;;;;;;20.48;11.18;;;;;;;;;;5071776;28;20419;-64
2021/12/10 03:59:56;;;;;;;20.63;11.77;;;;;;;;;;5071612;28;20017;-64
2021/12/10 04:02:22;;;;;;;18.95;11.40;;;;;;;;;;5070803;28;20017;-65
2021/12/10 04:04:49;;;;;;;19.30;11.05;;;;;;;;;;5071730;28;20031;-61
2021/12/10 04:07:20;;;;;;;20.27;11.93;;;;;;;;;;5053665;28;20484;-64
2021/12/10 04:09:46;;;;;;;22.60;11.88;;;;;;;;;;5053736;28;20488;-64
2021/12/10 04:12:13;;;;;;;19.75;11.82;;;;;;;;;;5053037;28;20060;-64
2021/12/10 04:14:40;;;;;;;20.40;11.88;;;;;;;;;;5071497;28;20025;-64
2021/12/10 04:17:06;;;;;;;20.20;11.23;;;;;;;;;;5053450;28;20401;-64
2021/12/10 04:19:33;;;;;;;21.63;12.32;;;;;;;;;;5071312;28;20469;-64
2021/12/10 04:22:00;;;;;;;23.50;12.27;;;;;;;;;;5052801;28;20107;-64
2021/12/10 04:24:27;;;;;;;23.52;12.85;;;;;;;;;;5053417;28;20017;-64
2021/12/10 04:26:53;;;;;;;25.15;13.77;;;;;;;;;;5071401;28;20016;-64
2021/12/10 04:29:20;;;;;;;27.52;16.98;;;;;;;;;;5071177;28;20051;-64
2021/12/10 04:31:51;;;;;;;33.20;18.42;;;;;;;;;;5070487;28;20484;-64
2021/12/10 04:34:17;;;;;;;32.75;16.50;;;;;;;;;;5053390;28;20028;-64
2021/12/10 04:36:43;;;;;;;30.08;17.02;;;;;;;;;;5053381;28;20055;-64
2021/12/10 04:39:09;;;;;;;28.60;16.70;;;;;;;;;;5055052;28;20388;-64
2021/12/10 04:41:36;;;;;;;30.45;17.80;;;;;;;;;;5056265;28;20362;-61
2021/12/10 04:44:02;;;;;;;30.48;17.67;;;;;;;;;;5074635;28;20020;-64
2021/12/10 04:46:28;;;;;;;30.67;16.35;;;;;;;;;;5056650;28;20032;-64
2021/12/10 04:48:57;;;;;;;32.20;16.98;;;;;;;;;;5074622;28;20099;-64
2021/12/10 04:51:24;;;;;;;28.05;15.95;;;;;;;;;;5056562;28;20036;-64
2021/12/10 04:53:51;;;;;;;30.33;17.80;;;;;;;;;;5074117;28;20033;-64
2021/12/10 04:56:17;;;;;;;27.35;14.90;;;;;;;;;;5074614;28;20025;-64
2021/12/10 04:58:43;;;;;;;30.48;16.60;;;;;;;;;;5074617;28;20021;-64
2021/12/10 05:01:09;;;;;;;25.25;14.27;;;;;;;;;;5074444;28;20020;-65
2021/12/10 05:03:36;;;;;;;25.92;15.75;;;;;;;;;;5056766;28;20052;-61
2021/12/10 05:06:03;;;;;;;29.48;15.93;;;;;;;;;;5074603;28;20024;-63
2021/12/10 05:08:33;;;;;;;23.88;14.52;;;;;;;;;;5074491;28;20070;-62
2021/12/10 05:11:00;;;;;;;29.75;15.95;;;;;;;;;;5074453;28;20025;-62
2021/12/10 05:13:26;;;;;;;29.63;16.40;;;;;;;;;;5073696;28;20481;-63
2021/12/10 05:15:57;;;;;;;33.80;17.52;;;;;;;;;;5073999;28;20035;-62
2021/12/10 05:18:23;;;;;;;36.78;20.38;;;;;;;;;;5074182;28;20104;-62
2021/12/10 05:20:50;;;;;;;39.92;21.38;;;;;;;;;;5073772;28;20020;-63
2021/12/10 05:23:16;;;;;;;38.35;22.27;;;;;;;;;;5073036;28;20029;-63
2021/12/10 05:25:43;;;;;;;29.88;16.88;;;;;;;;;;5056044;28;20028;-65
2021/12/10 05:28:09;;;;;;;28.38;16.27;;;;;;;;;;5056194;28;20031;-63
2021/12/10 05:30:36;;;;;;;25.42;14.57;;;;;;;;;;5073853;28;20032;-63
2021/12/10 05:33:03;;;;;;;25.45;14.18;;;;;;;;;;5055187;28;20028;-63
2021/12/10 05:35:30;;;;;;;27.25;15.23;;;;;;;;;;5073170;28;20028;-62
2021/12/10 05:37:56;;;;;;;27.80;14.27;;;;;;;;;;5073729;28;20024;-64
2021/12/10 05:40:23;;;;;;;25.02;13.88;;;;;;;;;;5073580;28;20438;-63
2021/12/10 05:42:49;;;;;;;25.25;13.45;;;;;;;;;;5054955;28;20397;-63
2021/12/10 05:45:16;;;;;;;25.88;15.18;;;;;;;;;;5055618;28;20024;-63
2021/12/10 05:47:42;;;;;;;28.17;15.25;;;;;;;;;;5073601;28;20044;-63
2021/12/10 05:50:09;;;;;;;26.40;14.05;;;;;;;;;;5055009;28;20033;-63
2021/12/10 05:52:35;;;;;;;33.55;15.90;;;;;;;;;;5072332;28;20028;-63
2021/12/10 05:55:01;;;;;;;26.15;14.73;;;;;;;;;;5073256;28;20059;-64
2021/12/10 05:57:27;;;;;;;24.83;13.95;;;;;;;;;;5073265;28;20468;-64
2021/12/10 05:59:54;;;;;;;25.75;14.98;;;;;;;;;;5072912;28;20023;-65
2021/12/10 06:02:20;;;;;;;22.33;13.80;;;;;;;;;;5072382;28;20056;-65
2021/12/10 06:04:45;;;;;;;23.50;13.27;;;;;;;;;;5054832;28;20064;-61
2021/12/10 06:07:11;;;;;;;22.20;12.40;;;;;;;;;;5054762;28;20035;-70
2021/12/10 06:09:37;;;;;;;26.25;13.63;;;;;;;;;;5072856;28;20033;-63
2021/12/10 06:12:04;;;;;;;20.75;11.93;;;;;;;;;;5071836;28;20542;-63
2021/12/10 06:14:30;;;;;;;23.23;12.52;;;;;;;;;;5069591;28;20040;-64
2021/12/10 06:16:56;;;;;;;21.38;12.20;;;;;;;;;;5072308;28;20032;-63
2021/12/10 06:19:23;;;;;;;22.40;12.60;;;;;;;;;;5072679;28;20025;-64
2021/12/10 06:21:49;;;;;;;21.85;11.90;;;;;;;;;;5047726;28;20048;-63
2021/12/10 06:24:15;;;;;;;22.38;13.07;;;;;;;;;;5052908;28;20473;-62
2021/12/10 06:26:41;;;;;;;25.50;13.65;;;;;;;;;;5052904;28;20021;-64
2021/12/10 06:29:07;;;;;;;21.02;12.20;;;;;;;;;;5034736;28;20029;-63
2021/12/10 06:31:34;;;;;;;26.08;13.15;;;;;;;;;;5051823;28;20029;-61
2021/12/10 06:34:00;;;;;;;25.75;13.02;;;;;;;;;;5052751;28;20107;-63
2021/12/10 06:36:27;;;;;;;23.33;13.30;;;;;;;;;;5052231;28;20027;-63
2021/12/10 06:38:53;;;;;;;22.15;12.52;;;;;;;;;;5052250;28;20032;-65
2021/12/10 06:41:20;;;;;;;25.38;13.57;;;;;;;;;;5052347;28;20420;-63
2021/12/10 06:43:46;;;;;;;24.73;12.95;;;;;;;;;;5033747;28;20021;-64
2021/12/10 06:46:13;;;;;;;21.35;12.25;;;;;;;;;;5034237;28;20029;-63
2021/12/10 06:48:39;;;;;;;23.33;12.90;;;;;;;;;;5068031;28;20028;-64
2021/12/10 06:51:09;;;;;;;24.35;12.43;;;;;;;;;;5105271;22;20052;-65
2021/12/10 06:53:36;;;;;;;23.40;12.45;;;;;;;;;;5091724;28;20448;-64
2021/12/10 06:56:04;;;;;;;21.73;12.27;;;;;;;;;;5092058;28;20027;-67
2021/12/10 06:58:32;;;;;;;21.53;12.13;;;;;;;;;;5092572;28;20023;-65
2021/12/10 07:00:58;;;;;;;;;;;;;;;;;;5074584;28;20270;-67
2021/12/10 07:03:27;;;;;;;27.50;12.32;;;;;;;;;;5091843;28;19904;-67
2021/12/10 07:05:54;;;;;;;23.80;12.25;;;;;;;;;;5092905;28;20030;-67
2021/12/10 07:08:21;;;;;;;24.55;11.90;;;;;;;;;;5074724;28;20537;-66
2021/12/10 07:10:47;;;;;;;22.83;11.95;;;;;;;;;;5092762;28;20048;-67
2021/12/10 07:13:15;;;;;;;21.50;11.40;;;;;;;;;;5092690;28;20028;-67
2021/12/10 07:15:43;;;;;;;21.00;11.93;;;;;;;;;;5074915;28;20021;-66
2021/12/10 07:18:09;;;;;;;21.75;11.60;;;;;;;;;;5074836;28;20035;-66
2021/12/10 07:20:36;;;;;;;22.10;11.70;;;;;;;;;;5074602;28;20107;-67
2021/12/10 07:23:02;;;;;;;21.98;11.68;;;;;;;;;;5074434;28;20058;-67
2021/12/10 07:25:28;;;;;;;25.92;11.15;;;;;;;;;;5074384;28;20024;-67
2021/12/10 07:27:54;;;;;;;21.83;11.52;;;;;;;;;;5074281;28;20115;-68
2021/12/10 07:30:22;;;;;;;23.65;11.65;;;;;;;;;;5074529;28;20055;-65
2021/12/10 07:32:48;;;;;;;21.88;11.35;;;;;;;;;;5091813;28;20658;-68
2021/12/10 07:35:15;;;;;;;22.67;12.88;;;;;;;;;;5073958;28;20032;-66
2021/12/10 07:37:41;;;;;;;24.98;10.70;;;;;;;;;;5074532;28;20039;-67
2021/12/10 07:40:09;;;;;;;20.65;10.32;;;;;;;;;;5092385;28;20027;-65
2021/12/10 07:42:35;;;;;;;20.80;11.13;;;;;;;;;;5073534;28;20364;-66
2021/12/10 07:45:01;;;;;;;22.98;11.75;;;;;;;;;;5092315;28;20059;-67
2021/12/10 07:47:33;;;;;;;20.45;10.55;;;;;;;;;;5073630;28;20043;-66
2021/12/10 07:49:59;;;;;;;21.23;11.00;;;;;;;;;;5073502;28;20066;-67
2021/12/10 07:52:28;;;;;;;21.17;11.25;;;;;;;;;;5091086;28;20024;-67
2021/12/10 07:54:54;;;;;;;20.08;10.10;;;;;;;;;;5073758;28;20491;-67
2021/12/10 07:57:20;;;;;;;22.85;10.15;;;;;;;;;;5073752;28;20028;-66
2021/12/10 07:59:48;;;;;;;20.15;10.45;;;;;;;;;;5074052;28;20368;-67
2021/12/10 08:02:15;;;;;;;20.60;11.07;;;;;;;;;;5073198;28;20434;-67
2021/12/10 08:04:40;;;;;;;21.88;10.65;;;2.90;99.90;;;;;;5073730;28;20474;-67
2021/12/10 08:07:06;;;;;;;18.05;10.05;;;1.20;99.90;;;;;;5074023;28;20023;-67
2021/12/10 08:09:32;;;;;;;19.30;9.77;;;1.20;99.90;;;;;;5074222;28;20043;-68
2021/12/10 08:11:57;;;;;;;23.75;10.60;;;1.30;99.90;;;;;;5091094;28;20354;-67
2021/12/10 08:14:23;;;;;;;21.77;10.32;;;1.30;99.90;;;;;;5075777;28;20111;-67
2021/12/10 08:16:49;;;;;;;19.52;10.15;;;1.30;99.90;;;;;;5095516;28;20032;-66
2021/12/10 08:19:14;;;;;;;19.08;10.50;;;1.30;99.90;;;;;;5077728;28;20027;-66
2021/12/10 08:21:42;;;;;;;19.80;9.90;;;1.40;99.90;;;;;;5095165;28;20107;-67
2021/12/10 08:24:09;;;;;;;20.73;10.30;;;1.50;99.90;;;;;;5077399;28;20065;-66
2021/12/10 08:26:35;;;;;;;18.75;9.55;;;1.50;99.90;;;;;;5077650;28;20411;-67
2021/12/10 08:29:02;;;;;;;21.33;9.70;;;1.60;99.90;;;;;;5095447;28;20021;-66
2021/12/10 08:31:29;;;;;;;19.00;9.57;;;1.60;99.90;;;;;;5095441;28;20035;-66
2021/12/10 08:33:55;;;;;;;17.75;9.43;;;1.70;99.90;;;;;;5094600;28;20031;-66
2021/12/10 08:36:22;;;;;;;20.17;10.05;;;1.70;99.90;;;;;;5095359;28;20024;-66
2021/12/10 08:38:48;;;;;;;18.90;9.50;;;1.70;99.90;;;;;;5077347;28;20467;-66
2021/12/10 08:41:25;;;;;;;17.75;9.23;;;;;;;;;;5095215;28;20035;-67
2021/12/10 08:43:54;;;;;;;20.95;10.75;;;;;;;;;;5094675;28;20505;-67
2021/12/10 08:46:20;;;;;;;17.77;10.00;;;;;;;;;;5095192;28;20016;-67
2021/12/10 08:48:48;;;;;;;18.45;9.77;;;;;;;;;;5077907;28;20024;-67
2021/12/10 08:51:18;;;;;;;19.65;10.00;;;;;;;;;;5094753;28;20039;-66
2021/12/10 08:53:45;;;;;;;20.52;10.13;;;;;;;;;;5075930;28;20119;-66
2021/12/10 08:56:11;;;;;;;22.15;10.35;;;;;;;;;;5076698;28;20050;-67
2021/12/10 08:58:37;;;;;;;17.77;9.98;;;;;;;;;;5095162;28;20016;-67
2021/12/10 09:01:08;;;;;;;18.83;9.50;;;;;;;;;;5094905;28;20028;-67
2021/12/10 09:03:35;;;;;;;19.30;9.35;;;;;;;;;;5076119;28;20016;-67
2021/12/10 09:06:01;;;;;;;18.45;10.32;;;;;;;;;;5076635;28;20024;-67
2021/12/10 09:08:28;;;;;;;18.30;10.40;;;;;;;;;;5077046;28;20039;-68
2021/12/10 09:10:54;;;;;;;21.17;10.73;;;;;;;;;;5076367;28;20031;-67
2021/12/10 09:13:21;;;;;;;17.67;9.57;;;;;;;;;;5076059;28;20028;-68
2021/12/10 09:15:52;;;;;;;21.08;10.23;;;;;;;;;;5076330;28;20028;-68
2021/12/10 09:18:21;;;;;;;21.35;9.50;;;;;;;;;;5094959;28;20176;-69
2021/12/10 09:20:47;;;;;;;;;;;;;;;;;;5077278;28;20028;-67
2021/12/10 09:23:14;;;;;;;17.45;9.43;;;;;;;;;;5075587;28;19911;-68
2021/12/10 09:25:41;;;;;;;19.35;10.70;;;;;;;;;;5076755;28;20030;-71
2021/12/10 09:28:07;;;;;;;20.50;9.90;;;;;;;;;;5078451;28;20030;-72
2021/12/10 09:30:36;;;;;;;17.60;9.60;;;;;;;;;;5076763;28;20028;-71
2021/12/10 09:33:03;;;;;;;17.08;9.32;;;;;;;;;;5094697;28;20028;-70
2021/12/10 09:35:30;;;;;;;22.45;9.93;;;;;;;;;;5078436;28;20510;-71
2021/12/10 09:37:57;;;;;;;19.90;10.02;;;;;;;;;;5077150;28;20079;-70
2021/12/10 09:40:25;;;;;;;19.90;9.85;;;;;;;;;;5095769;28;20544;-70
2021/12/10 09:42:51;;;;;;;17.83;9.13;;;;;;;;;;5076705;28;20366;-70
2021/12/10 09:45:21;;;;;;;17.95;9.80;;;;;;;;;;5077376;28;20048;-71
2021/12/10 09:47:48;;;;;;;17.67;9.90;;;;;;;;;;5077087;28;20024;-72
2021/12/10 09:50:15;;;;;;;22.08;10.18;;;;;;;;;;5077007;28;20086;-71
2021/12/10 09:52:41;;;;;;;18.00;9.73;;;;;;;;;;5076167;28;20365;-71
2021/12/10 09:55:08;;;;;;;18.83;9.27;;;;;;;;;;5094913;28;20024;-70
2021/12/10 09:57:38;;;;;;;18.63;9.90;;;;;;;;;;5095082;28;20035;-72
2021/12/10 10:00:15;;;;;;;17.45;9.32;;;;;;;;;;5076368;28;20028;-69
2021/12/10 10:02:42;;;;;;;20.67;10.23;;;;;;;;;;5076030;28;20157;-72
2021/12/10 10:05:09;;;;;;;21.08;9.95;;;1.80;99.90;;;;;;5076867;28;20460;-71
2021/12/10 10:07:36;;;;;;;19.00;9.30;;;3.80;99.90;;;;;;5076203;28;20046;-71
2021/12/10 10:10:11;;;;;;;19.35;9.52;;;3.90;99.90;;;;;;5076739;28;20024;-72
2021/12/10 10:12:41;;;;;;;17.88;9.63;;;3.90;99.90;;;;;;5075715;28;20028;-71
2021/12/10 10:15:18;;;;;;;17.40;9.38;;;4.00;99.90;;;;;;5094592;28;20028;-72
2021/12/10 10:17:44;;;;;;;19.33;9.57;;;4.00;99.90;;;;;;5094614;28;20031;-69
2021/12/10 10:20:13;;;;;;;19.25;9.18;;;4.10;99.90;;;;;;5076153;28;20016;-71
2021/12/10 10:22:39;;;;;;;;;;;4.20;99.90;;;;;;5094082;28;20020;-70
2021/12/10 10:25:08;;;;;;;18.60;10.30;;;4.20;99.90;;;;;;5093956;28;19938;-71
2021/12/10 10:27:36;;;;;;;17.95;9.63;;;4.30;99.90;;;;;;5094229;28;20028;-71
2021/12/10 10:30:14;;;;;;;17.70;8.82;;;4.40;99.90;;;;;;5076106;28;20588;-71
2021/12/10 10:32:44;;;;;;;19.45;9.10;;;4.50;99.90;;;;;;5094208;28;20214;-73
2021/12/10 10:35:17;;;;;;;16.52;9.25;;;4.50;99.90;;;;;;5093609;28;20020;-71
2021/12/10 10:37:44;;;;;;;20.30;9.13;;;4.60;99.90;;;;;;5075284;28;20059;-71
2021/12/10 10:40:13;;;;;;;17.75;9.85;;;4.70;99.90;;;;;;5093401;28;20087;-67
2021/12/10 10:42:40;;;;;;;23.05;11.57;;;;;;;;;;5074422;28;20020;-68
2021/12/10 10:45:07;;;;;;;19.08;10.02;;;;;;;;;;5093348;28;20035;-68
2021/12/10 10:47:33;;;;;;;20.02;10.75;;;;;;;;;;5093202;28;20092;-69
2021/12/10 10:50:01;;;;;;;18.35;10.50;;;;;;;;;;5092881;28;20035;-69
2021/12/10 10:52:36;;;;;;;16.45;10.40;;;5.10;99.90;;;;;;5092634;28;20059;-69
2021/12/10 10:55:26;;;;;;;17.42;10.80;;;9.30;99.90;;;;;;5093005;28;20020;-67
2021/12/10 10:57:57;;;;;;;17.77;12.25;;;9.80;99.90;;;;;;5093158;28;20024;-68
2021/12/10 11:00:28;;;;;;;17.42;10.80;;;10.20;99.90;;;;;;5092782;28;20194;-69
2021/12/10 11:02:59;;;;;;;18.05;11.20;;;10.40;99.90;;;;;;5073896;28;20538;-69
2021/12/10 11:05:27;;;;;;;19.33;12.02;;;10.70;99.90;;;;;;5092973;28;20394;-68
2021/12/10 11:07:58;;;;;;;19.05;11.35;;;10.90;99.90;;;;;;5074397;28;20066;-68
2021/12/10 11:10:42;;;;;;;20.70;11.32;;;10.90;99.90;;;;;;5074231;28;20491;-69
2021/12/10 11:13:18;;;;;;;16.77;10.57;;;10.50;99.90;;;;;;5091253;28;20024;-67
2021/12/10 11:15:58;;;;;;;17.27;11.35;;;10.90;99.90;;;;;;5069850;28;20229;-67
2021/12/10 11:18:24;;;;;;;17.00;11.73;;;11.20;99.90;;;;;;5074233;28;20070;-67
2021/12/10 11:20:50;;;;;;;18.40;11.77;;;12.20;99.90;;;;;;5074337;28;20410;-66
2021/12/10 11:23:19;;;;;;;20.85;12.60;;;13.80;98.20;;;;;;5073717;28;20051;-67
2021/12/10 11:25:49;;;;;;;17.25;11.75;;;14.10;96.20;;;;;;5074109;28;20085;-67
2021/12/10 11:28:20;;;;;;;18.95;11.60;;;14.30;94.30;;;;;;5073936;28;20062;-67
2021/12/10 11:30:50;;;;;;;17.83;11.63;;;14.20;93.70;;;;;;5091693;28;20499;-66
2021/12/10 11:33:22;;;;;;;18.80;11.93;;;14.60;92.80;;;;;;5091085;28;20028;-68
2021/12/10 11:35:52;;;;;;;17.48;11.73;;;13.40;92.50;;;;;;5091997;28;20063;-68
2021/12/10 11:38:28;;;;;;;21.10;11.45;;;13.70;92.40;;;;;;5073899;28;20105;-65
2021/12/10 11:40:58;;;;;;;18.38;11.07;;;13.10;92.40;;;;;;5091795;28;20027;-67
2021/12/10 11:48:55;;;;;;;19.88;11.68;;;14.70;90.00;;;;;;5095588;28;20032;-67
2021/12/10 11:51:28;;;;;;;17.05;11.07;;;14.40;89.80;;;;;;5096009;28;20723;-67
2021/12/10 11:53:56;;;;;;;21.80;10.88;;;14.60;90.00;;;;;;5077409;28;20032;-67
2021/12/10 11:56:23;;;;;;;;;;;14.90;88.70;;;;;;5077906;28;20028;-68
2021/12/10 11:59:19;;;;;;;18.08;10.80;;;13.90;90.00;;;;;;5077714;28;19998;-68
2021/12/10 12:01:44;;;;;;;19.63;11.10;;;13.40;90.40;;;;;;5095085;28;20073;-68
2021/12/10 12:04:24;;;;;;;18.58;10.02;;;12.80;90.40;;;;;;5095668;28;20020;-68
2021/12/10 12:07:29;;;;;;;19.05;11.27;;;12.30;91.50;;;;;;5077336;28;20492;-68
2021/12/10 12:10:17;;;;;;;19.30;10.77;;;11.60;91.00;;;;;;5077345;28;20077;-67
2021/12/10 12:12:44;;;;;;;;;;;11.70;91.90;;;;;;5076642;28;20028;-68
2021/12/10 12:15:36;;;;;;;17.67;10.73;;;12.50;91.80;;;;;;5095417;28;20005;-68
2021/12/10 12:18:05;;;;;;;17.52;10.57;;;12.80;90.40;;;;;;5077350;28;20020;-68
2021/12/10 12:20:49;;;;;;;18.70;11.05;;;12.60;91.10;;;;;;5095081;28;20016;-67
2021/12/10 12:26:19;;;;;;;19.13;10.95;;;12.30;91.20;;;;;;5095481;28;20406;-68
2021/12/10 12:28:48;;;;;;;18.08;10.77;;;12.30;91.30;;;;;;5077360;28;20027;-68
2021/12/10 12:31:27;;;;;;;19.25;11.10;;;12.10;91.10;;;;;;5094629;28;20024;-69
2021/12/10 12:34:06;;;;;;;18.85;11.52;;;12.30;91.30;;;;;;5076359;28;20502;-68
2021/12/10 12:36:55;;;;;;;16.75;10.65;;;12.90;90.90;;;;;;5094966;28;20154;-68
2021/12/10 12:39:36;;;;;;;19.00;11.30;;;13.00;90.80;;;;;;5094687;28;20032;-68
2021/12/10 12:42:22;;;;;;;21.63;10.25;;;12.80;90.70;;;;;;5075659;28;20020;-68
2021/12/10 12:44:55;;;;;;;17.75;10.10;;;12.20;90.40;;;;;;5093407;28;20103;-68
2021/12/10 12:47:33;;;;;;;17.20;10.50;;;12.30;90.80;;;;;;5076821;28;20021;-67
2021/12/10 12:52:34;;;;;;;19.02;10.90;;;12.30;90.50;;;;;;5088804;28;20047;-66
2021/12/10 12:55:23;;;;;;;21.10;10.63;;;12.50;91.00;;;;;;5074875;28;20028;-67
2021/12/10 12:58:14;;;;;;;18.15;10.30;;;12.60;90.50;;;;;;5092860;28;20099;-66
2021/12/10 13:00:46;;;;;;;21.02;10.75;;;12.90;90.10;;;;;;5073281;28;20036;-67
2021/12/10 13:03:16;;;;;;;18.83;11.18;;;12.80;90.20;;;;;;5092728;28;20035;-66
2021/12/10 13:05:47;;;;;;;16.80;10.93;;;12.40;90.50;;;;;;4737936;28;10000273;-67
2021/12/10 13:08:17;;;;;;;16.27;10.18;;;12.00;90.60;;;;;;5072528;28;20024;-68
2021/12/10 13:10:49;;;;;;;16.27;10.77;;;11.80;90.90;;;;;;5089984;28;20026;-70
2021/12/10 13:13:29;;;;;;;17.88;10.65;;;11.70;91.50;;;;;;5071292;28;20028;-67
2021/12/10 13:15:55;;;;;;;18.52;10.27;;;11.30;91.80;;;;;;5089678;28;20107;-67
2021/12/10 13:18:22;;;;;;;17.98;10.50;;;11.20;92.20;;;;;;5071403;28;20161;-67
2021/12/10 13:20:52;;;;;;;19.10;11.02;;;11.30;91.70;;;;;;5071831;28;20516;-67
2021/12/10 13:23:24;;;;;;;22.50;11.73;;;11.40;91.20;;;;;;5071042;28;20032;-68
2021/12/10 13:25:54;;;;;;;17.35;10.60;;;11.40;91.40;;;;;;5071599;28;20032;-67
2021/12/10 13:28:20;;;;;;;18.42;10.20;;;10.80;91.50;;;;;;5090017;28;20103;-68
2021/12/10 13:30:57;;;;;;;18.98;10.15;;;10.50;92.50;;;;;;5071667;28;20157;-68
2021/12/10 13:33:27;;;;;;;19.25;10.70;;;10.30;92.80;;;;;;5060158;28;20441;-66
2021/12/10 13:35:55;;;;;;;18.80;10.85;;;10.00;94.00;;;;;;5053937;28;20044;-68
2021/12/10 13:38:21;;;;;;;19.85;11.13;;;10.00;94.20;;;;;;5060091;28;20788;-67
2021/12/10 13:40:48;;;;;;;22.70;10.80;;;;;;;;;;5086464;28;20032;-67
2021/12/10 13:43:17;;;;;;;18.88;10.88;;;9.80;94.20;;;;;;5073416;28;20035;-68
2021/12/10 13:45:45;;;;;;;19.17;10.43;;;;;;;;;;5092252;28;20038;-69
2021/12/10 13:48:20;;;;;;;20.85;10.07;;;;;;;;;;5093847;28;20031;-74
2021/12/10 13:50:46;;;;;;;16.95;11.35;;;;;;;;;;5073875;28;20036;-68
2021/12/10 13:53:14;;;;;;;20.67;10.60;;;;;;;;;;5091303;28;20028;-67
2021/12/10 13:55:41;;;;;;;22.77;10.03;;;;;;;;;;5064401;28;20056;-67
2021/12/10 13:58:10;;;;;;;23.92;9.95;;;;;;;;;;5069955;28;20342;-67
2021/12/10 14:00:37;;;;;;;23.08;10.90;;;;;;;;;;5060557;28;20024;-68
2021/12/10 14:03:04;;;;;;;17.90;9.48;;;;;;;;;;5053564;28;20032;-66
2021/12/10 14:05:31;;;;;;;17.27;9.23;;;;;;;;;;5071987;28;20052;-66
2021/12/10 14:08:07;;;;;;;18.85;9.88;;;;;;;;;;5071946;28;20036;-68
2021/12/10 14:10:35;;;;;;;25.27;12.07;;;;;;;;;;5072339;28;20020;-66
2021/12/10 14:13:03;;;;;;;18.60;9.53;;;;;;;;;;5052866;28;20028;-67
2021/12/10 14:15:40;;;;;;;19.67;9.20;;;;;;;;;;5057786;28;20956;-67
2021/12/10 14:18:06;;;;;;;18.00;9.82;;;;;;;;;;5073577;28;20035;-67